Monday, June 25, 2018, 12:52 AM GMT
Back to Local

CWER, Ile D'Orleans Automated Reporting Station

Location: , , Canada Lat: 47
Local Time: 12:52 AM GMT ( 0:52 GMT) Lon: -70.817
Time Zone: GMT Elev: 16 ft

Show me the last for .
Show Coded

Time T Td Feel RH Dir Speed Gust Alt SLP Vis Weather Sky Remarks
2018-06-25 00:00 - - - 0 310° 3 - - - 0 None
2018-06-24 23:00 - - - 0 10° 5 - - - 0 None
2018-06-24 22:00 - - - 0 40° 14 - - - 0 None
2018-06-24 21:00 - - - 0 50° 16 - - - 0 Peak wind: 24 mph (21 kts) from 50° at 08 min
2018-06-24 20:00 - - - 0 50° 22 - - - 0 Peak wind: 27 mph (24 kts) from 40° at 02 min
2018-06-24 19:00 - - - 0 50° 25 - - - 0 Peak wind: 28 mph (25 kts) from 50° at 19 min
2018-06-24 18:00 - - - 0 50° 25 - - - 0 Peak wind: 31 mph (27 kts) from 50° at 21 min
2018-06-24 17:00 - - - 0 50° 28 - - - 0 Peak wind: 34 mph (30 kts) from 50° at 00 min
2018-06-24 16:00 - - - 0 50° 30 36 - - 0 Peak wind: 35 mph (31 kts) from 50° at 56 min
2018-06-24 15:00 - - - 0 40° 32 - - - 0 Peak wind: 37 mph (33 kts) from 40° at 22 min
2018-06-24 14:00 - - - 0 50° 31 - - - 0 Peak wind: 34 mph (30 kts) from 50° at 57 min
2018-06-24 13:00 - - - 0 50° 24 - - - 0 Peak wind: 28 mph (25 kts) from 50° at 57 min
2018-06-24 12:00 - - - 0 220° 9 - - - 0 None
2018-06-24 11:00 - - - 0 240° 9 - - - 0 None
2018-06-24 10:00 - - - 0 230° 15 - - - 0 Peak wind: 19 mph (17 kts) from 230° at 45 min
2018-06-24 09:00 - - - 0 230° 13 - - - 0 None
2018-06-24 08:00 - - - 0 230° 12 - - - 0 None
2018-06-24 07:00 - - - 0 230° 13 - - - 0 None
2018-06-24 06:00 - - - 0 230° 10 - - - 0 None
2018-06-24 05:00 - - - 0 230° 9 - - - 0 None
2018-06-24 04:00 - - - 0 230° 12 - - - 0 None
2018-06-24 03:00 - - - 0 250° 10 - - - 0 None
2018-06-24 02:00 - - - 0 240° 10 - - - 0 None
2018-06-24 01:00 - - - 0 250° 10 - - - 0 None

Support USWX by starting your Amazon purchase here.